Time;durP1;ratioP1;P1;durP2;ratioP2;P2;SDS_P1;SDS_P2;PMS_P1;PMS_P2;Temp;Humidity;BMP_temperature;BMP_pressure;BME280_temperature;BME280_humidity;BME280_pressure;Samples;Min_cycle;Max_cycle;Signal;HPM_P1;HPM_P2
2022/02/25 00:01:44;;;;;;;17.73;2.17;;;;;;;;;;4884161;29;20139;-92
2022/02/25 00:04:10;;;;;;;16.55;2.22;;;;;;;;;;4884310;29;20071;-95
2022/02/25 00:06:41;;;;;;;24.88;2.85;;;;;;;;;;4900056;29;20044;-93
2022/02/25 00:09:07;;;;;;;20.58;2.83;;;;;;;;;;4883028;29;20041;-94
2022/02/25 00:11:34;;;;;;;13.30;1.88;;;;;;;;;;4883373;29;20060;-91
2022/02/25 00:14:05;;;;;;;14.88;2.42;;;;;;;;;;4883310;29;20050;-92
2022/02/25 00:16:33;;;;;;;15.25;2.58;;;;;;;;;;4883483;29;20126;-92
2022/02/25 00:18:59;;;;;;;18.52;2.53;;;;;;;;;;4898735;29;20052;-89
2022/02/25 00:21:26;;;;;;;18.63;2.60;;;;;;;;;;4899238;29;20108;-90
2022/02/25 00:23:52;;;;;;;17.52;2.13;;;;;;;;;;4884070;29;20080;-92
2022/02/25 00:26:18;;;;;;;17.95;2.65;;;;;;;;;;4883736;29;20052;-88
2022/02/25 00:28:44;;;;;;;13.02;2.10;;;;;;;;;;4883168;29;20040;-92
2022/02/25 00:31:10;;;;;;;19.25;2.33;;;;;;;;;;4884645;29;20051;-92
2022/02/25 00:33:36;;;;;;;16.65;3.10;;;;;;;;;;4884095;29;20057;-89
2022/02/25 00:36:02;;;;;;;18.35;3.03;;;;;;;;;;4883170;29;20041;-92
2022/02/25 00:38:28;;;;;;;15.63;2.35;;;;;;;;;;4883673;29;20110;-91
2022/02/25 00:40:55;;;;;;;17.20;2.65;;;;;;;;;;4883809;29;20049;-84
2022/02/25 00:43:21;;;;;;;10.52;2.75;;;;;;;;;;4879011;29;20058;-82
2022/02/25 00:45:47;;;;;;;10.95;2.13;;;;;;;;;;4879909;29;20045;-80
2022/02/25 00:48:13;;;;;;;15.15;2.88;;;;;;;;;;4879023;29;20048;-80
2022/02/25 00:50:39;;;;;;;11.70;2.20;;;;;;;;;;4874446;29;20477;-81
2022/02/25 00:53:05;;;;;;;18.08;2.50;;;;;;;;;;4864644;29;20049;-82
2022/02/25 00:55:31;;;;;;;18.65;2.78;;;;;;;;;;4879411;29;20091;-82
2022/02/25 00:58:00;;;;;;;13.40;2.15;;;;;;;;;;4863651;29;20048;-81
2022/02/25 01:00:26;;;;;;;10.52;2.60;;;;;;;;;;4879693;29;20461;-82
2022/02/25 01:02:53;;;;;;;12.82;2.10;;;;;;;;;;4879307;29;20073;-82
2022/02/25 01:05:19;;;;;;;14.65;2.58;;;;;;;;;;4879806;29;20068;-80
2022/02/25 01:07:46;;;;;;;17.75;2.42;;;;;;;;;;4864102;29;20127;-81
2022/02/25 01:10:14;;;;;;;15.43;2.58;;;;;;;;;;4864397;29;20052;-82
2022/02/25 01:12:40;;;;;;;18.05;2.53;;;;;;;;;;4864065;29;20055;-81
2022/02/25 01:15:07;;;;;;;20.13;2.70;;;;;;;;;;4879591;29;20152;-81
2022/02/25 01:17:33;;;;;;;13.55;2.67;;;;;;;;;;4862773;29;20049;-79
2022/02/25 01:20:00;;;;;;;15.18;2.67;;;;;;;;;;4878694;29;20070;-82
2022/02/25 01:22:27;;;;;;;19.45;3.58;;;;;;;;;;4864310;29;20144;-82
2022/02/25 01:24:53;;;;;;;12.32;2.60;;;;;;;;;;4879312;29;20044;-82
2022/02/25 01:27:20;;;;;;;13.05;1.95;;;;;;;;;;4863731;29;20104;-82
2022/02/25 01:29:46;;;;;;;18.05;2.42;;;;;;;;;;4863735;29;20059;-82
2022/02/25 01:32:12;;;;;;;12.75;2.40;;;;;;;;;;4863845;29;20382;-80
2022/02/25 01:34:38;;;;;;;18.67;2.70;;;;;;;;;;4863472;29;20049;-81
2022/02/25 01:37:05;;;;;;;12.57;2.40;;;;;;;;;;4864105;29;20353;-82
2022/02/25 01:39:31;;;;;;;22.00;4.57;;;;;;;;;;4878904;29;20049;-82
2022/02/25 01:41:57;;;;;;;14.02;2.13;;;;;;;;;;4878852;29;20120;-82
2022/02/25 01:44:25;;;;;;;21.77;3.05;;;;;;;;;;4879189;29;20049;-81
2022/02/25 01:46:52;;;;;;;20.13;4.03;;;;;;;;;;4878632;29;20052;-81
2022/02/25 01:49:18;;;;;;;14.77;2.40;;;;;;;;;;4863596;29;20048;-81
2022/02/25 01:51:44;;;;;;;13.75;2.38;;;;;;;;;;4892565;29;20326;-82
2022/02/25 01:54:11;;;;;;;13.35;3.13;;;;;;;;;;4896239;29;20060;-83
2022/02/25 01:56:38;;;;;;;24.50;3.78;;;;;;;;;;4882128;29;20075;-81
2022/02/25 01:59:04;;;;;;;18.20;2.80;;;;;;;;;;4898526;29;20045;-79
2022/02/25 02:01:30;;;;;;;28.23;3.03;;;;;;;;;;4881432;29;20656;-81
2022/02/25 02:03:56;;;;;;;17.08;3.22;;;;;;;;;;4881995;29;20052;-82
2022/02/25 02:06:23;;;;;;;21.40;2.83;;;;;;;;;;4882649;29;20131;-82
2022/02/25 02:08:49;;;;;;;15.43;2.67;;;;;;;;;;4898549;29;20063;-81
2022/02/25 02:11:28;;;;;;;17.95;2.25;;;;;;;;;;4882533;29;20109;-80
2022/02/25 02:13:54;;;;;;;13.77;2.15;;;;;;;;;;4898074;29;20044;-80
2022/02/25 02:16:21;;;;;;;16.33;2.83;;;;;;;;;;4882243;29;20045;-81
2022/02/25 02:18:47;;;;;;;17.67;3.53;;;;;;;;;;4898567;29;20412;-81
2022/02/25 02:21:13;;;;;;;21.63;2.80;;;;;;;;;;4882835;29;20131;-82
2022/02/25 02:23:39;;;;;;;14.05;2.30;;;;;;;;;;4882164;29;20067;-82
2022/02/25 02:26:05;;;;;;;15.13;2.20;;;;;;;;;;4898152;29;20048;-81
2022/02/25 02:28:31;;;;;;;23.77;3.13;;;;;;;;;;4882115;29;20405;-81
2022/02/25 02:30:57;;;;;;;24.92;2.60;;;;;;;;;;4897558;29;20048;-83
2022/02/25 02:33:23;;;;;;;19.52;2.63;;;;;;;;;;4897585;29;20135;-82
2022/02/25 02:35:49;;;;;;;15.93;2.85;;;;;;;;;;4897758;29;20100;-80
2022/02/25 02:38:15;;;;;;;11.98;2.40;;;;;;;;;;4882606;29;20052;-81
2022/02/25 02:40:42;;;;;;;17.75;3.28;;;;;;;;;;4897049;29;20400;-82
2022/02/25 02:43:10;;;;;;;20.85;2.97;;;;;;;;;;4897519;29;20044;-82
2022/02/25 02:45:37;;;;;;;15.43;3.78;;;;;;;;;;4866595;29;20055;-82
2022/02/25 02:48:03;;;;;;;15.30;2.83;;;;;;;;;;4896088;29;20059;-81
2022/02/25 02:50:30;;;;;;;19.13;2.70;;;;;;;;;;4876954;29;20104;-82
2022/02/25 02:52:56;;;;;;;18.33;3.22;;;;;;;;;;4881873;29;20048;-82
2022/02/25 02:55:23;;;;;;;15.38;2.95;;;;;;;;;;4866649;29;20045;-79
2022/02/25 02:57:50;;;;;;;14.48;2.63;;;;;;;;;;4882035;29;20209;-82
2022/02/25 03:00:16;;;;;;;13.65;2.95;;;;;;;;;;4882720;29;20055;-82
2022/02/25 03:02:42;;;;;;;16.27;3.22;;;;;;;;;;4882033;29;20049;-82
2022/02/25 03:05:09;;;;;;;21.23;2.72;;;;;;;;;;4865665;29;20481;-82
2022/02/25 03:07:35;;;;;;;10.40;2.00;;;;;;;;;;4880929;29;20473;-82
2022/02/25 03:10:01;;;;;;;29.27;4.03;;;;;;;;;;4882055;29;20049;-82
2022/02/25 03:12:28;;;;;;;12.55;2.75;;;;;;;;;;4865687;29;20056;-80
2022/02/25 03:14:54;;;;;;;23.50;3.65;;;;;;;;;;4881735;29;20096;-80
2022/02/25 03:17:20;;;;;;;19.63;2.70;;;;;;;;;;4865550;29;20044;-81
2022/02/25 03:19:46;;;;;;;16.55;3.28;;;;;;;;;;4866271;29;20049;-82
2022/02/25 03:22:13;;;;;;;22.38;3.00;;;;;;;;;;4881051;29;20063;-82
2022/02/25 03:24:39;;;;;;;18.50;3.80;;;;;;;;;;4865587;29;20146;-82
2022/02/25 03:27:05;;;;;;;18.95;3.03;;;;;;;;;;4865358;29;20044;-81
2022/02/25 03:29:31;;;;;;;18.13;3.17;;;;;;;;;;4865369;29;20098;-82
2022/02/25 03:31:57;;;;;;;20.00;3.17;;;;;;;;;;4865284;29;20059;-83
2022/02/25 03:34:23;;;;;;;24.55;2.97;;;;;;;;;;4865308;29;20112;-80
2022/02/25 03:36:49;;;;;;;18.55;2.53;;;;;;;;;;4880262;29;20044;-80
2022/02/25 03:39:15;;;;;;;15.73;2.50;;;;;;;;;;4881361;29;20048;-82
2022/02/25 03:41:41;;;;;;;22.02;3.50;;;;;;;;;;4880570;29;20045;-83
2022/02/25 03:44:07;;;;;;;12.90;2.08;;;;;;;;;;4880867;29;20143;-81
2022/02/25 03:46:33;;;;;;;25.67;2.80;;;;;;;;;;4865026;29;20052;-82
2022/02/25 03:48:59;;;;;;;20.05;2.60;;;;;;;;;;4881280;29;20064;-82
2022/02/25 03:51:26;;;;;;;20.15;3.00;;;;;;;;;;4879521;29;20083;-79
2022/02/25 03:53:52;;;;;;;14.85;2.58;;;;;;;;;;4899832;29;20052;-82
2022/02/25 03:56:19;;;;;;;24.35;3.22;;;;;;;;;;4883657;29;20040;-82
2022/02/25 03:58:45;;;;;;;18.10;3.05;;;;;;;;;;4898951;29;20048;-82
2022/02/25 04:01:11;;;;;;;22.13;4.45;;;;;;;;;;4899381;29;20049;-82
2022/02/25 04:03:37;;;;;;;18.27;2.92;;;;;;;;;;4883976;29;20496;-81
2022/02/25 04:06:03;;;;;;;14.32;2.15;;;;;;;;;;4899868;29;20099;-82
2022/02/25 04:08:29;;;;;;;20.45;3.08;;;;;;;;;;4898699;29;20413;-79
2022/02/25 04:10:55;;;;;;;21.63;3.55;;;;;;;;;;4883787;29;20415;-82
2022/02/25 04:13:21;;;;;;;17.95;3.13;;;;;;;;;;4900892;29;20048;-82
2022/02/25 04:15:48;;;;;;;17.23;2.55;;;;;;;;;;4898878;29;20335;-81
2022/02/25 04:18:14;;;;;;;15.40;2.72;;;;;;;;;;4899521;29;20044;-82
2022/02/25 04:20:40;;;;;;;16.10;3.03;;;;;;;;;;4899131;29;20055;-82
2022/02/25 04:23:06;;;;;;;18.17;3.85;;;;;;;;;;4899694;29;20130;-82
2022/02/25 04:25:32;;;;;;;21.42;3.40;;;;;;;;;;4899492;29;20052;-82
2022/02/25 04:27:58;;;;;;;21.58;3.28;;;;;;;;;;4883697;29;20163;-83
2022/02/25 04:30:26;;;;;;;15.52;3.10;;;;;;;;;;4899346;29;20059;-82
2022/02/25 04:32:52;;;;;;;19.83;2.72;;;;;;;;;;4898916;29;20087;-83
2022/02/25 04:35:20;;;;;;;19.80;3.25;;;;;;;;;;4883967;29;20445;-82
2022/02/25 04:37:46;;;;;;;23.05;4.13;;;;;;;;;;4883214;29;20040;-81
2022/02/25 04:40:13;;;;;;;17.42;2.90;;;;;;;;;;4898926;29;20097;-82
2022/02/25 04:42:39;;;;;;;19.30;2.70;;;;;;;;;;4898845;29;20190;-82
2022/02/25 04:45:06;;;;;;;17.45;2.75;;;;;;;;;;4898913;29;20090;-80
2022/02/25 04:47:32;;;;;;;18.35;3.50;;;;;;;;;;4900811;29;20075;-81
2022/02/25 04:49:59;;;;;;;26.98;3.28;;;;;;;;;;4897147;29;20059;-82
2022/02/25 04:52:25;;;;;;;19.65;3.55;;;;;;;;;;4899328;29;20055;-82
2022/02/25 04:54:51;;;;;;;18.17;3.35;;;;;;;;;;4883434;29;20075;-81
2022/02/25 04:57:17;;;;;;;23.08;3.05;;;;;;;;;;4882552;29;20047;-82
2022/02/25 04:59:43;;;;;;;20.48;2.75;;;;;;;;;;4882801;29;20059;-81
2022/02/25 05:02:09;;;;;;;23.75;2.88;;;;;;;;;;4882658;29;20488;-82
2022/02/25 05:04:36;;;;;;;17.15;3.10;;;;;;;;;;4882476;29;20131;-80
2022/02/25 05:07:03;;;;;;;20.10;2.83;;;;;;;;;;4882645;29;20472;-83
2022/02/25 05:09:29;;;;;;;19.95;2.63;;;;;;;;;;4895408;29;20104;-82
2022/02/25 05:11:55;;;;;;;15.35;2.63;;;;;;;;;;4897249;29;20111;-81
2022/02/25 05:22:35;;;;;;;19.92;3.03;;;;;;;;;;4898091;29;20056;-80
2022/02/25 05:25:01;;;;;;;23.25;3.67;;;;;;;;;;4882387;29;20056;-86
2022/02/25 05:27:28;;;;;;;24.13;2.80;;;;;;;;;;4882800;29;20079;-83
2022/02/25 05:29:54;;;;;;;22.85;3.30;;;;;;;;;;4898646;29;20484;-85
2022/02/25 05:32:20;;;;;;;22.10;3.08;;;;;;;;;;4901472;29;20044;-81
2022/02/25 05:34:46;;;;;;;19.27;3.83;;;;;;;;;;4901143;29;20048;-84
2022/02/25 05:37:12;;;;;;;31.40;3.72;;;;;;;;;;4887690;29;20108;-86
2022/02/25 05:39:38;;;;;;;21.05;3.85;;;;;;;;;;4902953;29;20048;-88
2022/02/25 05:42:05;;;;;;;14.48;2.63;;;;;;;;;;4903195;29;20083;-89
2022/02/25 05:44:31;;;;;;;22.63;3.78;;;;;;;;;;4903661;29;20052;-87
2022/02/25 05:46:57;;;;;;;26.10;4.18;;;;;;;;;;4902068;29;20060;-86
2022/02/25 05:49:24;;;;;;;21.95;3.72;;;;;;;;;;4902012;29;20048;-82
2022/02/25 05:51:50;;;;;;;21.90;3.40;;;;;;;;;;4903055;29;20063;-90
2022/02/25 05:54:17;;;;;;;20.33;3.85;;;;;;;;;;4884815;29;20052;-79
2022/02/25 05:56:43;;;;;;;27.95;4.18;;;;;;;;;;4898513;29;20051;-80
2022/02/25 05:59:09;;;;;;;28.48;3.80;;;;;;;;;;4900877;29;20090;-83
2022/02/25 06:01:35;;;;;;;30.25;4.60;;;;;;;;;;4884962;29;20223;-79
2022/02/25 06:04:01;;;;;;;20.10;3.92;;;;;;;;;;4898544;29;20079;-79
2022/02/25 06:06:27;;;;;;;25.70;3.50;;;;;;;;;;4898768;29;20052;-79
2022/02/25 06:08:53;;;;;;;16.02;2.90;;;;;;;;;;4898519;29;20048;-81
2022/02/25 06:11:19;;;;;;;22.20;3.38;;;;;;;;;;4900045;29;20136;-80
2022/02/25 06:13:45;;;;;;;28.10;4.13;;;;;;;;;;4885491;29;20048;-81
2022/02/25 06:16:12;;;;;;;21.05;3.35;;;;;;;;;;4900623;29;20048;-80
2022/02/25 06:18:38;;;;;;;27.20;3.65;;;;;;;;;;4900598;29;20083;-79
2022/02/25 06:21:08;;;;;;;24.60;3.10;;;;;;;;;;4898155;29;20675;-79
2022/02/25 06:23:34;;;;;;;22.98;4.50;;;;;;;;;;4884197;29;20099;-78
2022/02/25 06:26:00;;;;;;;27.15;3.78;;;;;;;;;;4899430;29;20100;-79
2022/02/25 06:28:26;;;;;;;25.58;4.03;;;;;;;;;;4899711;29;20048;-79
2022/02/25 06:30:53;;;;;;;24.45;3.83;;;;;;;;;;4899332;29;20055;-78
2022/02/25 06:33:19;;;;;;;23.67;3.70;;;;;;;;;;4900633;29;20111;-78
2022/02/25 06:35:46;;;;;;;18.83;4.10;;;;;;;;;;4899919;29;20052;-78
2022/02/25 06:38:12;;;;;;;14.65;3.30;;;;;;;;;;4884510;29;20397;-78
2022/02/25 06:40:38;;;;;;;23.25;3.95;;;;;;;;;;4898494;29;20048;-79
2022/02/25 06:43:04;;;;;;;17.15;3.53;;;;;;;;;;4897904;29;20044;-81
2022/02/25 06:45:30;;;;;;;25.10;4.07;;;;;;;;;;4884751;29;20075;-81
2022/02/25 06:47:56;;;;;;;23.73;3.20;;;;;;;;;;4900465;29;20052;-81
2022/02/25 06:50:22;;;;;;;24.52;4.35;;;;;;;;;;4885597;29;20444;-88
2022/02/25 06:52:49;;;;;;;23.05;4.18;;;;;;;;;;4885581;29;20058;-81
2022/02/25 06:55:16;;;;;;;22.38;3.92;;;;;;;;;;4884595;29;20091;-80
2022/02/25 06:57:42;;;;;;;16.02;3.90;;;;;;;;;;4900312;29;20083;-82
2022/02/25 07:00:11;;;;;;;25.45;4.18;;;;;;;;;;4900041;29;20122;-83
2022/02/25 07:02:37;;;;;;;31.98;5.32;;;;;;;;;;4883466;29;20048;-85
2022/02/25 07:05:04;;;;;;;18.85;4.18;;;;;;;;;;4900736;29;20483;-86
2022/02/25 07:07:30;;;;;;;19.63;3.83;;;;;;;;;;4884331;29;20453;-84
2022/02/25 07:09:56;;;;;;;24.33;3.97;;;;;;;;;;4899349;29;20369;-86
2022/02/25 07:12:22;;;;;;;26.23;3.28;;;;;;;;;;4899961;29;20055;-84
2022/02/25 07:14:49;;;;;;;22.15;3.88;;;;;;;;;;4883673;29;20062;-81
2022/02/25 07:17:15;;;;;;;25.55;4.18;;;;;;;;;;4899468;29;20474;-84
2022/02/25 07:19:41;;;;;;;25.75;4.03;;;;;;;;;;4899122;29;20468;-81
2022/02/25 07:22:07;;;;;;;28.35;4.10;;;;;;;;;;4884027;29;20440;-78
2022/02/25 07:24:33;;;;;;;22.90;3.95;;;;;;;;;;4899198;29;20059;-80
2022/02/25 07:27:00;;;;;;;25.35;3.85;;;;;;;;;;4898683;29;20055;-79
2022/02/25 07:29:26;;;;;;;27.75;3.40;;;;;;;;;;4899437;29;20044;-80
2022/02/25 07:31:52;;;;;;;28.15;3.97;;;;;;;;;;4898076;29;20052;-85
2022/02/25 07:34:18;;;;;;;29.65;4.40;;;;;;;;;;4885038;29;20044;-82
2022/02/25 07:36:44;;;;;;;23.23;3.58;;;;;;;;;;4898795;29;20111;-82
2022/02/25 07:39:10;;;;;;;19.30;3.80;;;;;;;;;;4900237;29;20470;-96
2022/02/25 07:41:36;;;;;;;27.98;3.75;;;;;;;;;;4902384;29;20138;-90
2022/02/25 07:44:02;;;;;;;21.05;3.58;;;;;;;;;;4885281;29;20052;-88
2022/02/25 07:46:28;;;;;;;28.40;4.28;;;;;;;;;;4899071;29;20099;-76
2022/02/25 07:48:54;;;;;;;23.67;4.40;;;;;;;;;;4898920;29;20044;-79
2022/02/25 07:51:21;;;;;;;16.80;4.85;;;;;;;;;;4897747;29;20060;-79
2022/02/25 07:53:48;;;;;;;27.95;4.15;;;;;;;;;;4882301;29;20083;-80
2022/02/25 07:56:16;;;;;;;27.23;4.78;;;;;;;;;;4899033;29;20087;-79
2022/02/25 07:58:42;;;;;;;22.17;3.72;;;;;;;;;;4899304;29;20048;-79
2022/02/25 08:01:08;;;;;;;26.13;4.15;;;;;;;;;;4898977;29;20078;-79
2022/02/25 08:03:35;;;;;;;22.35;3.50;;;;;;;;;;4883078;29;20510;-79
2022/02/25 08:06:01;;;;;;;25.20;3.55;;;;;;;;;;4883338;29;20055;-80
2022/02/25 08:08:27;;;;;;;25.30;5.07;;;;;;;;;;4883679;29;20051;-79
2022/02/25 08:10:53;;;;;;;26.27;3.72;;;;;;;;;;4898328;29;20047;-78
2022/02/25 08:13:20;;;;;;;19.90;3.30;;;;;;;;;;4899143;29;20442;-79
2022/02/25 08:15:46;;;;;;;18.08;3.15;;;;;;;;;;4898468;29;20056;-79
2022/02/25 08:18:13;;;;;;;20.08;3.92;;;;;;;;;;4882158;29;20090;-80
2022/02/25 08:20:39;;;;;;;26.23;3.70;;;;;;;;;;4897680;29;20059;-79
2022/02/25 08:23:06;;;;;;;23.17;4.72;;;;;;;;;;4882657;29;20058;-83
2022/02/25 08:25:33;;;;;;;20.17;3.25;;;;;;;;;;4898937;29;20461;-85
2022/02/25 08:28:00;;;;;;;21.20;3.03;;;;;;;;;;4898500;29;20064;-83
2022/02/25 08:30:26;;;;;;;17.75;3.10;;;;;;;;;;4915720;29;20048;-81
2022/02/25 08:32:53;;;;;;;16.90;2.92;;;;;;;;;;4898770;29;20396;-83
2022/02/25 08:35:20;;;;;;;17.77;3.08;;;;;;;;;;4898375;29;20056;-81
2022/02/25 08:37:47;;;;;;;20.10;3.38;;;;;;;;;;4898169;29;20052;-82
2022/02/25 08:40:14;;;;;;;15.52;3.00;;;;;;;;;;4898064;29;20107;-81
2022/02/25 08:42:40;;;;;;;19.55;3.25;;;;;;;;;;4899027;29;20059;-82
2022/02/25 08:45:07;;;;;;;12.93;2.25;;;;;;;;;;4898890;29;20135;-83
2022/02/25 08:47:33;;;;;;;16.33;3.50;;;;;;;;;;4898695;29;20052;-83
2022/02/25 08:49:59;;;;;;;21.80;3.10;;;;;;;;;;4882900;29;20142;-80
2022/02/25 08:52:26;;;;;;;16.95;3.28;;;;;;;;;;4899299;29;20088;-84
2022/02/25 08:54:52;;;;;;;22.65;2.97;;;;;;;;;;4898679;29;20521;-81
2022/02/25 08:57:18;;;;;;;32.72;4.32;;;;;;;;;;4882251;29;20095;-84
2022/02/25 08:59:45;;;;;;;19.38;3.30;;;;;;;;;;4898656;29;20090;-82
2022/02/25 09:02:12;;;;;;;24.15;3.95;;;;;;;;;;4898304;29;20349;-81
2022/02/25 09:04:38;;;;;;;24.48;2.85;;;;;;;;;;4882123;29;20111;-82
2022/02/25 09:07:04;;;;;;;24.75;4.18;;;;;;;;;;4882258;29;20044;-80
2022/02/25 09:09:30;;;;;;;18.20;3.70;;;;;;;;;;4882876;29;20456;-80
2022/02/25 09:11:56;;;;;;;26.33;3.72;;;;;;;;;;4898341;29;20047;-82
2022/02/25 09:14:23;;;;;;;19.25;3.63;;;;;;;;;;4882328;29;20048;-80
2022/02/25 09:16:50;;;;;;;20.83;3.50;;;;;;;;;;4897609;29;20519;-80
2022/02/25 09:19:16;;;;;;;20.35;3.22;;;;;;;;;;4897677;29;20468;-82
2022/02/25 09:21:42;;;;;;;21.90;3.47;;;;;;;;;;4898215;29;20499;-80
2022/02/25 09:24:08;;;;;;;23.95;3.28;;;;;;;;;;4882307;29;20095;-83
2022/02/25 09:26:34;;;;;;;39.50;4.75;;;;;;;;;;4883113;29;20048;-83
2022/02/25 09:29:01;;;;;;;34.65;4.28;;;;;;;;;;4882500;29;20052;-75
2022/02/25 09:31:27;;;;;;;21.65;3.53;;;;;;;;;;4897906;29;20059;-82
2022/02/25 09:33:53;;;;;;;21.25;3.63;;;;;;;;;;4898110;29;20513;-79
2022/02/25 09:36:19;;;;;;;29.25;5.15;;;;;;;;;;4915048;29;20067;-81
2022/02/25 09:38:45;;;;;;;28.50;4.50;;;;;;;;;;4898111;29;20048;-76
2022/02/25 09:41:12;;;;;;;28.45;4.05;;;;;;;;;;4897795;29;20045;-76
2022/02/25 09:43:39;;;;;;;18.98;4.50;;;;;;;;;;4897716;29;20564;-78
2022/02/25 09:46:06;;;;;;;25.77;5.07;;;;;;;;;;4897776;29;20059;-80
2022/02/25 09:48:32;;;;;;;26.38;3.88;;;;;;;;;;4898432;29;20108;-80
2022/02/25 09:50:58;;;;;;;18.88;4.47;;;;;;;;;;4882237;29;20143;-82
2022/02/25 09:53:24;;;;;;;27.90;3.47;;;;;;;;;;4882890;29;20055;-87
2022/02/25 09:55:51;;;;;;;24.33;4.28;;;;;;;;;;4898889;29;20052;-81
2022/02/25 09:58:17;;;;;;;25.20;3.92;;;;;;;;;;4882242;29;20080;-79
2022/02/25 10:00:44;;;;;;;24.27;4.05;;;;;;;;;;4898282;29;20048;-85
2022/02/25 10:03:15;;;;;;;22.15;4.15;;;;;;;;;;4882131;29;20091;-81
2022/02/25 10:05:42;;;;;;;21.88;3.67;;;;;;;;;;4881582;29;20052;-81
2022/02/25 10:08:09;;;;;;;25.52;3.40;;;;;;;;;;4881385;29;20075;-80
2022/02/25 10:10:41;;;;;;;17.45;4.15;;;;;;;;;;4897620;29;20112;-80
2022/02/25 10:13:07;;;;;;;28.48;3.80;;;;;;;;;;4897936;29;20377;-81
2022/02/25 10:15:35;;;;;;;27.88;4.25;;;;;;;;;;4900211;29;20091;-81
2022/02/25 10:18:05;;;;;;;28.17;4.45;;;;;;;;;;4885800;29;20106;-79
2022/02/25 10:20:32;;;;;;;30.98;4.93;;;;;;;;;;4886144;29;20047;-81
2022/02/25 10:22:59;;;;;;;28.40;4.53;;;;;;;;;;4901322;29;20147;-81
2022/02/25 10:25:32;;;;;;;31.90;4.50;;;;;;;;;;4901861;29;20507;-82
2022/02/25 10:27:58;;;;;;;24.10;5.03;;;;;;;;;;4901969;29;20211;-80
2022/02/25 10:30:24;;;;;;;28.90;4.45;;;;;;;;;;4901751;29;20527;-82
2022/02/25 10:32:51;;;;;;;32.08;5.28;;;;;;;;;;4901600;29;20488;-82
2022/02/25 10:35:29;;;;;;;30.88;5.75;;;;;;;;;;4901627;29;20044;-82
2022/02/25 10:37:55;;;;;;;24.90;3.75;;;;;;;;;;4901175;29;20055;-80
2022/02/25 10:40:22;;;;;;;24.30;3.97;;;;;;;;;;4901026;29;20059;-81
2022/02/25 10:42:49;;;;;;;15.93;2.72;;;;;;;;;;4899941;29;20044;-77
2022/02/25 10:45:26;;;;;;;16.42;1.95;;;;;;;;;;4885488;29;20056;-80
2022/02/25 10:47:52;;;;;;;18.30;2.80;;;;;;;;;;4887093;29;20502;-77
2022/02/25 10:50:20;;;;;;;15.07;2.08;;;;;;;;;;4884740;29;20075;-79
2022/02/25 10:52:49;;;;;;;15.20;2.22;;;;;;;;;;4901038;29;20485;-81
2022/02/25 10:55:18;;;;;;;15.75;2.30;;;;;;;;;;4900525;29;20421;-80
2022/02/25 10:57:44;;;;;;;14.43;2.08;;;;;;;;;;4900603;29;20083;-80
2022/02/25 11:00:12;;;;;;;11.85;2.05;;;;;;;;;;4900024;29;20044;-83
2022/02/25 11:02:39;;;;;;;11.55;1.70;;;;;;;;;;4900817;29;20119;-80
2022/02/25 11:05:10;;;;;;;9.85;1.30;;;;;;;;;;4900530;29;20500;-80
2022/02/25 11:07:38;;;;;;;11.30;1.42;;;;;;;;;;4900858;29;20052;-81
2022/02/25 11:10:05;;;;;;;5.80;1.15;;;;;;;;;;4900356;29;20052;-81
2022/02/25 11:12:31;;;;;;;8.48;0.85;;;;;;;;;;4900308;29;20048;-81
2022/02/25 11:14:58;;;;;;;6.72;1.15;;;;;;;;;;4884777;29;20056;-81
2022/02/25 11:17:25;;;;;;;3.85;0.70;;;;;;;;;;4900062;29;20211;-81
2022/02/25 11:19:54;;;;;;;5.30;0.60;;;;;;;;;;4900022;29;20392;-79
2022/02/25 11:22:21;;;;;;;4.93;0.70;;;;;;;;;;4900166;29;20139;-81
2022/02/25 11:24:48;;;;;;;7.90;1.00;;;;;;;;;;4884593;29;20103;-82
2022/02/25 11:27:15;;;;;;;7.47;1.00;;;;;;;;;;4883861;29;20140;-82
2022/02/25 11:29:54;;;;;;;6.40;1.10;;;;;;;;;;4884887;29;20134;-82
2022/02/25 11:32:22;;;;;;;3.28;0.70;;;;;;;;;;4899769;29;20516;-82
2022/02/25 11:34:48;;;;;;;5.80;0.82;;;;;;;;;;4884880;29;20163;-82
2022/02/25 11:37:34;;;;;;;7.40;2.00;;;;;;;;;;4899864;29;20044;-81
2022/02/25 11:40:01;;;;;;;8.13;1.13;;;;;;;;;;4899939;29;20044;-82
2022/02/25 11:42:30;;;;;;;10.38;1.85;;;;;;;;;;4900066;29;20094;-82
2022/02/25 11:45:04;;;;;;;14.18;1.48;;;;;;;;;;4884401;29;20099;-82
2022/02/25 11:47:37;;;;;;;12.23;1.95;;;;;;;;;;4899646;29;20059;-83
2022/02/25 11:50:23;;;;;;;10.65;2.15;;;;;;;;;;4899609;29;20090;-81
2022/02/25 11:52:58;;;;;;;16.42;2.25;;;;;;;;;;4900007;29;20480;-83
2022/02/25 11:55:24;;;;;;;12.10;2.80;;;;;;;;;;4899999;29;20259;-82
2022/02/25 11:57:51;;;;;;;11.80;2.22;;;;;;;;;;4900064;29;20051;-82
2022/02/25 12:00:18;;;;;;;12.15;2.17;;;;;;;;;;4899781;29;20153;-82
2022/02/25 12:03:04;;;;;;;16.75;2.08;;;;;;;;;;4899778;29;20055;-83
2022/02/25 12:05:37;;;;;;;14.35;3.13;;;;;;;;;;4899613;29;20381;-83
2022/02/25 12:08:18;;;;;;;18.20;2.53;;;;;;;;;;4884496;29;20456;-80
2022/02/25 12:10:44;;;;;;;15.55;2.58;;;;;;;;;;4884138;29;20376;-82
2022/02/25 12:13:19;;;;;;;14.75;2.40;;;;;;;;;;4899796;29;20059;-81
2022/02/25 12:15:46;;;;;;;15.95;2.13;;;;;;;;;;4899547;29;20094;-83
2022/02/25 12:18:15;;;;;;;18.25;2.33;;;;;;;;;;4899169;29;20051;-83
2022/02/25 12:20:59;;;;;;;11.07;2.22;;;;;;;;;;4899692;29;20091;-83
2022/02/25 12:23:38;;;;;;;16.17;3.13;;;;;;;;;;4899527;29;20044;-83
2022/02/25 12:26:05;;;;;;;15.18;3.05;;;;;;;;;;4899761;29;20063;-84
2022/02/25 12:28:33;;;;;;;18.15;3.10;;;;;;;;;;4899234;29;20067;-83
2022/02/25 12:31:00;;;;;;;16.13;2.88;;;;;;;;;;4899484;29;20090;-84
2022/02/25 12:33:29;;;;;;;17.17;2.53;;;;;;;;;;4883466;29;20445;-83
2022/02/25 12:35:56;;;;;;;17.40;2.85;;;;;;;;;;4899213;29;20510;-83
2022/02/25 12:38:31;;;;;;;16.85;2.58;;;;;;;;;;4897863;29;20128;-83
2022/02/25 12:41:14;;;;;;;17.38;3.00;;;;;;;;;;4899381;29;20048;-83
2022/02/25 12:44:01;;;;;;;10.85;2.10;;;;;;;;;;4883110;29;20087;-83
2022/02/25 12:46:31;;;;;;;22.27;3.65;;;;;;;;;;4883323;29;20055;-83
2022/02/25 12:48:57;;;;;;;17.40;2.58;;;;;;;;;;4883684;29;20051;-83
2022/02/25 12:51:25;;;;;;;22.73;3.53;;;;;;;;;;4897861;29;20048;-83
2022/02/25 12:53:53;;;;;;;19.63;2.85;;;;;;;;;;4899099;29;20056;-83
2022/02/25 12:56:23;;;;;;;15.20;3.05;;;;;;;;;;4882612;29;20056;-82
2022/02/25 12:58:50;;;;;;;16.98;2.50;;;;;;;;;;4898309;29;20059;-83
2022/02/25 13:01:26;;;;;;;16.88;2.67;;;;;;;;;;4898851;29;20066;-81
2022/02/25 13:04:04;;;;;;;15.63;2.47;;;;;;;;;;4898602;29;20051;-82
2022/02/25 13:06:31;;;;;;;13.70;2.60;;;;;;;;;;4897976;29;20068;-82
2022/02/25 13:08:57;;;;;;;11.55;2.05;;;;;;;;;;4882769;29;20134;-83
2022/02/25 13:11:24;;;;;;;13.40;1.73;;;;;;;;;;4882485;29;20407;-82
2022/02/25 13:13:52;;;;;;;12.35;1.80;;;;;;;;;;4898624;29;20051;-82
2022/02/25 13:16:18;;;;;;;11.35;2.17;;;;;;;;;;4898129;29;20056;-81
2022/02/25 13:18:44;;;;;;;10.48;1.77;;;;;;;;;;4897988;29;20066;-81
2022/02/25 13:21:11;;;;;;;14.38;2.33;;;;;;;;;;4898572;29;20056;-82
2022/02/25 13:23:38;;;;;;;14.05;2.13;;;;;;;;;;4898106;29;20556;-82
2022/02/25 13:26:06;;;;;;;15.70;1.73;;;;;;;;;;4898711;29;20183;-82
2022/02/25 13:28:32;;;;;;;14.45;2.75;;;;;;;;;;4898398;29;20191;-82
2022/02/25 13:30:58;;;;;;;19.27;2.40;;;;;;;;;;4898988;29;20067;-84
2022/02/25 13:33:25;;;;;;;14.00;2.25;;;;;;;;;;4898612;29;20040;-82
2022/02/25 13:35:59;;;;;;;14.73;2.90;;;;;;;;;;4898807;29;20492;-82
2022/02/25 13:38:29;;;;;;;15.57;2.28;;;;;;;;;;4898320;29;20123;-82
2022/02/25 13:40:55;;;;;;;18.80;3.00;;;;;;;;;;4883089;29;20152;-81
2022/02/25 13:43:25;;;;;;;24.15;2.85;;;;;;;;;;4898718;29;20400;-81
2022/02/25 13:45:52;;;;;;;12.85;2.42;;;;;;;;;;4883030;29;20604;-81
2022/02/25 13:53:58;;;;;;;15.38;2.90;;;;;;;;;;4902191;29;20199;-82
2022/02/25 13:56:24;;;;;;;;;;;;;;;;;;4902327;29;20488;-82
2022/02/25 13:58:57;;;;;;;17.02;2.38;;;;;;;;;;4901737;29;19934;-81
2022/02/25 14:01:23;;;;;;;13.50;2.72;;;;;;;;;;4886522;29;20091;-77
2022/02/25 14:03:49;;;;;;;20.55;2.30;;;;;;;;;;4902104;29;20214;-82
2022/02/25 14:06:26;;;;;;;16.90;2.40;;;;;;;;;;4886296;29;20051;-82
2022/02/25 14:08:52;;;;;;;14.95;2.10;;;;;;;;;;4886512;29;20131;-80
2022/02/25 14:11:30;;;;;;;11.98;2.00;;;;;;;;;;4901894;29;20048;-80
2022/02/25 14:14:00;;;;;;;9.27;1.88;;;;;;;;;;4901649;29;20563;-81
2022/02/25 14:16:27;;;;;;;11.55;1.52;;;;;;;;;;4885604;29;20052;-81
2022/02/25 14:18:53;;;;;;;9.00;1.73;;;;;;;;;;4901692;29;20084;-81
2022/02/25 14:21:27;;;;;;;6.97;1.30;;;;;;;;;;4901553;29;20052;-82
2022/02/25 14:23:53;;;;;;;8.82;1.50;;;;;;;;;;4901557;29;20535;-82
2022/02/25 14:26:26;;;;;;;6.43;1.65;;;;;;;;;;4901182;29;20052;-81
2022/02/25 14:28:52;;;;;;;13.47;2.23;;;;;;;;;;4901664;29;20048;-81
2022/02/25 14:31:24;;;;;;;16.58;2.30;;;;;;;;;;4901246;29;20048;-81
2022/02/25 14:33:50;;;;;;;14.95;1.83;;;;;;;;;;4900819;29;20052;-81
2022/02/25 14:36:21;;;;;;;16.10;2.72;;;;;;;;;;4901324;29;20060;-81
2022/02/25 14:38:49;;;;;;;21.38;3.00;;;;;;;;;;4900551;29;20433;-81
2022/02/25 14:41:16;;;;;;;20.45;3.55;;;;;;;;;;4885477;29;20048;-81
2022/02/25 14:43:42;;;;;;;20.40;3.45;;;;;;;;;;4900871;29;20048;-82
2022/02/25 14:46:13;;;;;;;17.60;3.10;;;;;;;;;;4901156;29;20052;-81